createdAt,value
2022-08-20T00:01:16.272Z,5.55
2022-08-20T00:03:49.988Z,6.00
2022-08-20T00:06:23.704Z,5.03
2022-08-20T00:08:51.343Z,5.00
2022-08-20T00:11:25.158Z,5.25
2022-08-20T00:13:57.857Z,5.05
2022-08-20T00:16:29.584Z,5.50
2022-08-20T00:18:56.416Z,4.55
2022-08-20T00:21:24.877Z,4.82
2022-08-20T00:23:55.118Z,4.97
2022-08-20T00:26:24.176Z,4.30
2022-08-20T00:28:53.249Z,3.92
2022-08-20T00:31:23.855Z,4.68
2022-08-20T00:33:51.398Z,4.68
2022-08-20T00:36:19.085Z,4.45
2022-08-20T00:38:47.151Z,4.28
2022-08-20T00:41:24.401Z,4.13
2022-08-20T00:44:14.128Z,3.80
2022-08-20T00:46:43.411Z,4.32
2022-08-20T00:49:37.336Z,4.10
2022-08-20T00:52:09.443Z,4.50
2022-08-20T00:54:55.119Z,4.60
2022-08-20T00:58:00.866Z,4.35
2022-08-20T01:00:40.315Z,3.75
2022-08-20T01:03:11.424Z,4.35
2022-08-20T01:05:46.951Z,3.53
2022-08-20T01:08:18.726Z,3.60
2022-08-20T01:10:49.884Z,3.42
2022-08-20T01:13:23.571Z,4.25
2022-08-20T01:15:56.109Z,3.30
2022-08-20T01:18:27.965Z,3.53
2022-08-20T01:21:04.066Z,3.88
2022-08-20T01:23:56.626Z,3.92
2022-08-20T01:26:30.217Z,5.13
2022-08-20T01:29:14.050Z,4.15
2022-08-20T01:31:41.877Z,3.92
2022-08-20T01:34:16.547Z,4.80
2022-08-20T01:36:53.258Z,4.28
2022-08-20T01:39:40.411Z,4.85
2022-08-20T01:42:14.625Z,4.43
2022-08-20T01:44:45.045Z,4.40
2022-08-20T01:47:24.904Z,4.05
2022-08-20T01:50:00.000Z,4.25
2022-08-20T01:52:55.057Z,3.92
2022-08-20T01:55:26.595Z,4.47
2022-08-20T01:57:54.812Z,3.80
2022-08-20T02:00:23.676Z,4.22
2022-08-20T02:02:50.809Z,4.32
2022-08-20T02:05:19.073Z,4.10
2022-08-20T02:07:46.117Z,3.55
2022-08-20T02:10:16.652Z,3.65
2022-08-20T02:12:44.276Z,4.15
2022-08-20T02:15:12.601Z,3.75
2022-08-20T02:17:41.733Z,3.80
2022-08-20T02:20:20.285Z,4.22
2022-08-20T02:22:55.110Z,3.70
2022-08-20T02:25:26.656Z,3.90
2022-08-20T02:27:55.906Z,3.80
2022-08-20T02:30:33.273Z,3.35
2022-08-20T02:33:05.064Z,3.15
2022-08-20T02:35:32.660Z,3.80
2022-08-20T02:38:01.766Z,3.17
2022-08-20T02:40:30.636Z,3.78
2022-08-20T02:43:00.297Z,3.97
2022-08-20T02:45:30.560Z,3.70
2022-08-20T02:47:58.943Z,3.97
2022-08-20T02:50:27.919Z,3.70
2022-08-20T02:52:54.994Z,3.90
2022-08-20T02:55:42.281Z,3.10
2022-08-20T02:58:16.237Z,3.50
2022-08-20T03:00:44.115Z,4.13
2022-08-20T03:03:12.888Z,2.75
2022-08-20T03:05:44.172Z,3.63
2022-08-20T03:08:15.915Z,3.35
2022-08-20T03:10:48.652Z,3.38
2022-08-20T03:13:25.089Z,3.50
2022-08-20T03:15:59.771Z,3.63
2022-08-20T03:18:38.409Z,3.35
2022-08-20T03:21:09.867Z,2.90
2022-08-20T03:23:40.335Z,3.60
2022-08-20T03:26:13.761Z,3.10
2022-08-20T03:28:42.580Z,3.50
2022-08-20T03:31:10.766Z,2.90
2022-08-20T03:33:39.601Z,2.78
2022-08-20T03:36:28.354Z,3.00
2022-08-20T03:39:01.059Z,2.85
2022-08-20T03:41:28.901Z,3.20
2022-08-20T03:43:55.842Z,2.38
2022-08-20T03:46:23.517Z,2.90
2022-08-20T03:48:56.373Z,3.22
2022-08-20T03:51:29.637Z,2.72
2022-08-20T03:53:56.972Z,3.15
2022-08-20T03:56:23.819Z,3.00
2022-08-20T03:58:50.661Z,2.67
2022-08-20T04:01:44.882Z,3.15
2022-08-20T04:04:04.934Z,2.53
2022-08-20T04:06:31.845Z,3.17
2022-08-20T04:08:58.693Z,3.25
2022-08-20T04:11:25.434Z,2.90
2022-08-20T04:13:52.584Z,2.88
2022-08-20T04:16:19.575Z,2.80
2022-08-20T04:19:01.384Z,2.63
2022-08-20T04:21:33.910Z,2.60
2022-08-20T04:24:02.958Z,2.90
2022-08-20T04:26:31.382Z,2.45
2022-08-20T04:28:58.678Z,3.17
2022-08-20T04:31:33.497Z,2.70
2022-08-20T04:34:07.928Z,2.90
2022-08-20T04:36:40.404Z,2.70
2022-08-20T04:39:07.235Z,2.78
2022-08-20T04:41:33.994Z,3.00
2022-08-20T04:44:01.169Z,2.80
2022-08-20T04:46:30.559Z,2.83
2022-08-20T04:48:57.802Z,2.65
2022-08-20T04:51:26.860Z,2.75
2022-08-20T04:53:56.593Z,2.70
2022-08-20T04:56:28.984Z,2.85
2022-08-20T04:58:59.250Z,3.10
2022-08-20T05:01:28.243Z,2.60
2022-08-20T05:03:57.776Z,2.83
2022-08-20T05:06:30.285Z,2.85
2022-08-20T05:09:01.140Z,2.75
2022-08-20T05:11:35.430Z,2.88
2022-08-20T05:14:05.870Z,2.25
2022-08-20T05:16:37.868Z,2.80
2022-08-20T05:19:08.424Z,2.40
2022-08-20T05:21:35.315Z,2.38
2022-08-20T05:24:02.931Z,2.10
2022-08-20T05:26:30.047Z,2.33
2022-08-20T05:28:59.433Z,2.45
2022-08-20T05:31:32.261Z,2.58
2022-08-20T05:34:10.845Z,2.13
2022-08-20T05:36:49.552Z,2.20
2022-08-20T05:39:23.157Z,1.85
2022-08-20T05:41:51.189Z,2.17
2022-08-20T05:44:19.395Z,1.92
2022-08-20T05:46:48.179Z,1.90
2022-08-20T05:49:21.684Z,2.20
2022-08-20T05:51:53.410Z,2.05
2022-08-20T05:54:23.861Z,2.28
2022-08-20T05:56:51.061Z,2.13
2022-08-20T05:59:22.218Z,1.83
2022-08-20T06:01:51.254Z,2.28
2022-08-20T06:04:38.646Z,1.88
2022-08-20T06:07:12.148Z,2.10
2022-08-20T06:09:41.337Z,1.80
2022-08-20T06:12:10.431Z,2.53
2022-08-20T06:14:39.308Z,1.80
2022-08-20T06:17:16.759Z,1.85
2022-08-20T06:19:46.923Z,2.08
2022-08-20T06:22:20.118Z,2.00
2022-08-20T06:25:03.091Z,1.83
2022-08-20T06:27:43.893Z,1.77
2022-08-20T06:30:15.939Z,1.80
2022-08-20T06:32:55.035Z,1.83
2022-08-20T06:35:21.894Z,1.65
2022-08-20T06:37:52.945Z,1.80
2022-08-20T06:40:24.809Z,1.40
2022-08-20T06:42:52.717Z,1.83
2022-08-20T06:45:27.944Z,2.08
2022-08-20T06:48:15.371Z,1.85
2022-08-20T06:50:47.891Z,2.00
2022-08-20T06:53:20.542Z,1.83
2022-08-20T06:55:57.945Z,1.52
2022-08-20T06:58:36.368Z,1.63
2022-08-20T07:01:10.606Z,1.70
2022-08-20T07:03:42.307Z,1.88
2022-08-20T07:06:25.291Z,1.35
2022-08-20T07:08:55.677Z,1.83
2022-08-20T07:11:27.801Z,1.48
2022-08-20T07:13:58.649Z,1.60
2022-08-20T07:16:26.011Z,1.40
2022-08-20T07:18:52.861Z,1.50
2022-08-20T07:21:19.609Z,1.50
2022-08-20T07:23:49.376Z,1.40
2022-08-20T07:26:17.647Z,1.58
2022-08-20T07:28:44.767Z,1.23
2022-08-20T07:31:31.458Z,1.50
2022-08-20T07:34:02.540Z,1.15
2022-08-20T07:36:30.404Z,1.52
2022-08-20T07:38:59.334Z,1.20
2022-08-20T07:41:33.524Z,1.10
2022-08-20T07:44:00.284Z,1.35
2022-08-20T07:46:31.270Z,1.17
2022-08-20T07:48:58.719Z,1.92
2022-08-20T07:51:25.598Z,1.38
2022-08-20T07:53:52.691Z,1.15
2022-08-20T07:56:24.422Z,1.45
2022-08-20T07:58:55.516Z,1.45
2022-08-20T08:01:30.384Z,1.10
2022-08-20T08:03:59.458Z,1.20
2022-08-20T08:06:31.364Z,1.00
2022-08-20T08:09:10.876Z,0.75
2022-08-20T08:11:52.488Z,1.05
2022-08-20T08:14:26.848Z,1.00
2022-08-20T08:16:58.131Z,1.25
2022-08-20T08:19:38.768Z,0.98
2022-08-20T08:22:12.543Z,1.02
2022-08-20T08:24:41.949Z,1.00
2022-08-20T08:27:23.628Z,0.55
2022-08-20T08:29:50.617Z,0.70
2022-08-20T08:32:17.576Z,0.80
2022-08-20T08:34:48.135Z,0.52
2022-08-20T08:37:15.033Z,1.27
2022-08-20T08:39:42.310Z,0.75
2022-08-20T08:42:43.260Z,0.57
2022-08-20T08:45:13.066Z,0.98
2022-08-20T08:47:41.225Z,0.93
2022-08-20T08:50:50.136Z,0.75
2022-08-20T08:53:24.500Z,0.93
2022-08-20T08:55:51.274Z,0.70
2022-08-20T08:58:18.119Z,0.65
2022-08-20T09:00:56.507Z,1.05
2022-08-20T09:03:33.141Z,1.88
2022-08-20T09:06:02.540Z,1.17
2022-08-20T09:09:03.380Z,0.85
2022-08-20T09:11:31.147Z,1.08
2022-08-20T09:13:58.574Z,0.73
2022-08-20T09:16:28.099Z,0.88
2022-08-20T09:19:13.157Z,0.60
2022-08-20T09:21:39.979Z,0.80
2022-08-20T09:24:07.002Z,1.13
2022-08-20T09:26:38.639Z,0.85
2022-08-20T09:29:06.025Z,1.00
2022-08-20T09:31:33.139Z,0.70
2022-08-20T09:33:59.972Z,1.15
2022-08-20T09:36:32.121Z,1.17
2022-08-20T09:39:02.978Z,0.77
2022-08-20T09:41:32.929Z,0.93
2022-08-20T09:44:02.143Z,0.85
2022-08-20T09:46:29.008Z,0.98
2022-08-20T09:48:55.893Z,1.20
2022-08-20T09:51:23.258Z,0.95
2022-08-20T09:53:50.635Z,1.60
2022-08-20T09:56:18.219Z,1.00
2022-08-20T09:58:53.475Z,1.08
2022-08-20T10:01:27.387Z,1.67
2022-08-20T10:03:54.293Z,1.02
2022-08-20T10:06:21.316Z,1.00
2022-08-20T10:08:50.556Z,1.60
2022-08-20T10:11:18.386Z,1.10
2022-08-20T10:13:45.863Z,1.10
2022-08-20T10:16:16.366Z,0.98
2022-08-20T10:18:43.194Z,1.30
2022-08-20T10:21:13.279Z,0.95
2022-08-20T10:23:40.280Z,1.17
2022-08-20T10:26:12.383Z,0.85
2022-08-20T10:28:39.632Z,2.17
2022-08-20T10:31:11.609Z,1.30
2022-08-20T10:33:40.019Z,0.88
2022-08-20T10:36:17.391Z,0.90
2022-08-20T10:38:45.622Z,1.00
2022-08-20T10:41:13.544Z,0.98
2022-08-20T10:43:40.955Z,1.08
2022-08-20T10:46:07.929Z,0.80
2022-08-20T10:48:35.004Z,0.88
2022-08-20T10:51:01.884Z,0.85
2022-08-20T10:53:28.759Z,1.35
2022-08-20T10:55:57.608Z,1.23
2022-08-20T10:58:25.906Z,0.80
2022-08-20T11:01:02.510Z,0.93
2022-08-20T11:03:29.336Z,1.38
2022-08-20T11:05:56.105Z,1.17
2022-08-20T11:08:33.263Z,1.00
2022-08-20T11:11:00.697Z,1.10
2022-08-20T11:13:27.601Z,1.00
2022-08-20T11:15:54.520Z,0.90
2022-08-20T11:18:23.322Z,1.52
2022-08-20T11:20:51.662Z,1.38
2022-08-20T11:23:18.460Z,1.30
2022-08-20T11:25:45.498Z,1.77
2022-08-20T11:28:13.039Z,1.00
2022-08-20T11:30:40.049Z,1.20
2022-08-20T11:33:07.326Z,1.90
2022-08-20T11:35:48.959Z,0.82
2022-08-20T11:38:18.438Z,1.10
2022-08-20T11:40:46.890Z,1.05
2022-08-20T11:43:16.989Z,1.40
2022-08-20T11:45:52.649Z,0.90
2022-08-20T11:48:20.414Z,1.48
2022-08-20T11:50:48.503Z,1.52
2022-08-20T11:53:15.899Z,0.88
2022-08-20T11:55:43.757Z,1.27
2022-08-20T11:58:11.404Z,1.08
2022-08-20T12:00:38.367Z,1.83
2022-08-20T12:03:08.613Z,1.13
2022-08-20T12:05:38.350Z,1.00
2022-08-20T12:08:25.315Z,1.55
2022-08-20T12:10:55.836Z,1.42
2022-08-20T12:13:23.605Z,0.95
2022-08-20T12:15:58.897Z,1.00
2022-08-20T12:18:27.099Z,1.70
2022-08-20T12:20:54.650Z,1.20
2022-08-20T12:23:21.568Z,1.10
2022-08-20T12:25:48.849Z,1.15
2022-08-20T12:28:16.097Z,1.17
2022-08-20T12:30:43.017Z,1.13
2022-08-20T12:33:09.935Z,1.30
2022-08-20T12:35:36.836Z,1.48
2022-08-20T12:38:05.997Z,0.95
2022-08-20T12:40:33.696Z,1.83
2022-08-20T12:43:02.941Z,1.20
2022-08-20T12:45:31.701Z,1.05
2022-08-20T12:48:09.888Z,0.93
2022-08-20T12:50:40.170Z,1.17
2022-08-20T12:53:08.185Z,1.17
2022-08-20T12:55:35.956Z,1.55
2022-08-20T12:58:04.906Z,1.48
2022-08-20T13:00:33.419Z,1.00
2022-08-20T13:03:03.742Z,1.30
2022-08-20T13:05:32.153Z,2.88
2022-08-20T13:07:59.256Z,1.00
2022-08-20T13:10:33.624Z,1.10
2022-08-20T13:13:02.841Z,1.10
2022-08-20T13:15:31.996Z,1.02
2022-08-20T13:18:01.902Z,1.10
2022-08-20T13:20:31.625Z,1.65
2022-08-20T13:23:03.641Z,1.58
2022-08-20T13:25:30.975Z,1.67
2022-08-20T13:28:03.793Z,1.17
2022-08-20T13:30:33.303Z,1.00
2022-08-20T13:33:00.657Z,1.10
2022-08-20T13:35:27.506Z,1.00
2022-08-20T13:37:54.300Z,0.82
2022-08-20T13:40:21.185Z,0.98
2022-08-20T13:42:50.428Z,0.80
2022-08-20T13:45:17.649Z,1.38
2022-08-20T13:47:44.532Z,1.25
2022-08-20T13:50:20.449Z,0.90
2022-08-20T13:52:48.407Z,1.00
2022-08-20T13:55:20.172Z,1.33
2022-08-20T13:57:47.824Z,1.10
2022-08-20T14:00:31.411Z,0.75
2022-08-20T14:03:05.031Z,1.10
2022-08-20T14:05:35.601Z,1.13
2022-08-20T14:08:14.363Z,0.90
2022-08-20T14:10:42.729Z,1.10
2022-08-20T14:13:15.168Z,1.02
2022-08-20T14:15:42.994Z,1.05
2022-08-20T14:18:09.988Z,0.98
2022-08-20T14:20:38.687Z,1.13
2022-08-20T14:23:06.138Z,1.75
2022-08-20T14:25:33.519Z,1.10
2022-08-20T14:28:32.784Z,1.23
2022-08-20T14:30:59.557Z,1.27
2022-08-20T14:33:26.405Z,1.27
2022-08-20T14:35:53.310Z,1.10
2022-08-20T14:38:20.279Z,1.20
2022-08-20T14:40:47.471Z,1.65
2022-08-20T14:43:14.211Z,1.33
2022-08-20T14:45:41.027Z,1.48
2022-08-20T14:48:09.357Z,1.20
2022-08-20T14:50:37.353Z,0.90
2022-08-20T14:53:06.894Z,1.00
2022-08-20T14:55:38.018Z,1.13
2022-08-20T14:58:11.527Z,2.22
2022-08-20T15:00:38.888Z,0.93
2022-08-20T15:03:05.744Z,1.05
2022-08-20T15:05:33.223Z,0.90
2022-08-20T15:08:00.353Z,1.10
2022-08-20T15:10:32.319Z,1.08
2022-08-20T15:12:59.792Z,0.90
2022-08-20T15:15:27.012Z,1.17
2022-08-20T15:18:00.247Z,1.27
2022-08-20T15:20:31.244Z,1.10
2022-08-20T15:22:58.509Z,1.58
2022-08-20T15:25:36.613Z,0.95
2022-08-20T15:28:08.844Z,1.00
2022-08-20T15:30:39.133Z,1.10
2022-08-20T15:33:06.357Z,1.08
2022-08-20T15:35:33.658Z,1.33
2022-08-20T15:38:00.910Z,1.00
2022-08-20T15:40:31.933Z,1.20
2022-08-20T15:43:02.826Z,1.15
2022-08-20T15:45:30.139Z,1.17
2022-08-20T15:48:20.447Z,1.02
2022-08-20T15:51:23.155Z,1.00
2022-08-20T15:54:04.735Z,0.95
2022-08-20T15:56:43.669Z,1.30
2022-08-20T15:59:40.136Z,1.45
2022-08-20T16:02:42.454Z,1.00
2022-08-20T16:05:19.261Z,1.08
2022-08-20T16:08:22.289Z,1.00
2022-08-20T16:11:03.527Z,1.10
2022-08-20T16:13:45.092Z,1.20
2022-08-20T16:16:23.556Z,0.82
2022-08-20T16:18:53.729Z,1.10
2022-08-20T16:21:37.448Z,1.00
2022-08-20T16:24:12.747Z,0.65
2022-08-20T16:27:43.297Z,0.90
2022-08-20T16:30:21.944Z,0.90
2022-08-20T16:33:06.443Z,1.13
2022-08-20T16:35:54.559Z,1.30
2022-08-20T16:38:40.168Z,1.00
2022-08-20T16:41:28.686Z,1.08
2022-08-20T16:44:09.276Z,0.95
2022-08-20T16:46:48.896Z,0.85
2022-08-20T16:49:16.206Z,1.15
2022-08-20T16:51:51.795Z,1.40
2022-08-20T16:54:29.307Z,1.00
2022-08-20T16:57:06.093Z,0.93
2022-08-20T17:00:16.354Z,0.73
2022-08-20T17:02:56.096Z,0.90
2022-08-20T17:05:27.673Z,1.00
2022-08-20T17:08:15.284Z,1.45
2022-08-20T17:11:15.315Z,0.90
2022-08-20T17:13:46.887Z,1.05
2022-08-20T17:16:13.871Z,0.77
2022-08-20T17:19:08.390Z,1.17
2022-08-20T17:21:39.242Z,0.90
2022-08-20T17:24:28.315Z,0.80
2022-08-20T17:27:31.546Z,1.10
2022-08-20T17:30:34.257Z,0.90
2022-08-20T17:33:08.911Z,1.00
2022-08-20T17:35:48.556Z,1.00
2022-08-20T17:38:45.652Z,0.80
2022-08-20T17:41:26.487Z,0.90
2022-08-20T17:44:08.911Z,0.80
2022-08-20T17:46:43.913Z,0.60
2022-08-20T17:49:20.177Z,1.00
2022-08-20T17:51:55.163Z,0.80
2022-08-20T17:54:33.744Z,0.90
2022-08-20T17:57:09.596Z,0.70
2022-08-20T18:00:00.865Z,0.90
2022-08-20T18:02:33.442Z,1.35
2022-08-20T18:05:01.261Z,1.05
2022-08-20T18:08:06.784Z,0.70
2022-08-20T18:11:01.774Z,0.88
2022-08-20T18:14:07.411Z,0.80
2022-08-20T18:17:01.743Z,0.88
2022-08-20T18:20:05.810Z,0.90
2022-08-20T18:22:58.542Z,1.05
2022-08-20T18:25:57.236Z,0.90
2022-08-20T18:28:38.511Z,0.98
2022-08-20T18:31:22.190Z,1.17
2022-08-20T18:34:22.422Z,1.08
2022-08-20T18:37:17.427Z,0.82
2022-08-20T18:39:50.119Z,0.88
2022-08-20T18:42:36.815Z,0.85
2022-08-20T18:45:35.836Z,0.90
2022-08-20T18:48:04.825Z,0.98
2022-08-20T18:50:56.015Z,0.63
2022-08-20T18:53:34.180Z,1.58
2022-08-20T18:56:10.856Z,1.48
2022-08-20T18:59:22.004Z,0.80
2022-08-20T19:01:49.843Z,1.00
2022-08-20T19:04:29.395Z,0.88
2022-08-20T19:07:10.102Z,1.20
2022-08-20T19:10:27.872Z,1.83
2022-08-20T19:13:41.138Z,1.70
2022-08-20T19:16:18.159Z,1.35
2022-08-20T19:19:21.228Z,2.15
2022-08-20T19:21:49.387Z,0.85
2022-08-20T19:24:27.841Z,0.98
2022-08-20T19:27:06.280Z,1.02
2022-08-20T19:29:56.810Z,0.90
2022-08-20T19:32:33.149Z,1.00
2022-08-20T19:35:06.596Z,0.98
2022-08-20T19:37:59.469Z,1.00
2022-08-20T19:40:33.201Z,1.00
2022-08-20T19:43:13.801Z,0.90
2022-08-20T19:46:01.684Z,0.75
2022-08-20T19:48:55.868Z,1.00
2022-08-20T19:51:40.745Z,1.10
2022-08-20T19:54:22.344Z,1.98
2022-08-20T19:56:50.958Z,1.27
2022-08-20T19:59:21.561Z,1.00
2022-08-20T20:02:00.181Z,1.17
2022-08-20T20:04:38.211Z,1.30
2022-08-20T20:07:21.979Z,1.88
2022-08-20T20:09:56.531Z,1.52
2022-08-20T20:12:24.605Z,1.80
2022-08-20T20:14:54.822Z,1.55
2022-08-20T20:17:28.774Z,1.48
2022-08-20T20:20:18.594Z,1.30
2022-08-20T20:22:56.426Z,1.50
2022-08-20T20:25:33.874Z,1.33
2022-08-20T20:28:27.343Z,1.30
2022-08-20T20:31:05.782Z,1.13
2022-08-20T20:33:43.800Z,0.90
2022-08-20T20:36:30.182Z,1.00
2022-08-20T20:39:11.235Z,0.65
2022-08-20T20:41:53.786Z,0.88
2022-08-20T20:44:28.629Z,1.02
2022-08-20T20:47:01.557Z,1.05
2022-08-20T20:49:46.604Z,1.45
2022-08-20T20:52:49.817Z,0.90
2022-08-20T20:55:31.453Z,0.82
2022-08-20T20:57:59.860Z,0.93
2022-08-20T21:00:33.900Z,1.10
2022-08-20T21:03:03.767Z,1.42
2022-08-20T21:05:33.118Z,1.08
2022-08-20T21:08:03.932Z,1.00
2022-08-20T21:10:35.264Z,0.93
2022-08-20T21:13:05.409Z,1.00
2022-08-20T21:15:34.812Z,1.08
2022-08-20T21:18:05.226Z,1.02
2022-08-20T21:20:33.393Z,1.30
2022-08-20T21:23:00.163Z,1.33
2022-08-20T21:25:30.362Z,1.33
2022-08-20T21:27:57.232Z,1.45
2022-08-20T21:30:25.942Z,1.25
2022-08-20T21:32:53.365Z,1.75
2022-08-20T21:35:20.668Z,0.90
2022-08-20T21:37:47.803Z,1.10
2022-08-20T21:40:18.233Z,1.10
2022-08-20T21:42:49.646Z,1.08
2022-08-20T21:45:19.662Z,0.90
2022-08-20T21:47:46.862Z,1.00
2022-08-20T21:50:19.679Z,1.00
2022-08-20T21:52:59.223Z,1.02
2022-08-20T21:55:29.563Z,1.23
2022-08-20T21:57:58.584Z,1.13
2022-08-20T22:00:53.444Z,2.92
2022-08-20T22:03:26.247Z,0.88
2022-08-20T22:05:55.348Z,1.00
2022-08-20T22:08:24.108Z,1.00
2022-08-20T22:10:56.970Z,0.95
2022-08-20T22:13:28.234Z,1.33
2022-08-20T22:15:55.011Z,1.08
2022-08-20T22:18:21.761Z,0.98
2022-08-20T22:20:50.800Z,1.92
2022-08-20T22:23:17.661Z,1.33
2022-08-20T22:25:44.777Z,1.20
2022-08-20T22:28:11.643Z,1.15
2022-08-20T22:30:42.469Z,1.20
2022-08-20T22:33:21.457Z,1.13
2022-08-20T22:35:57.109Z,1.10
2022-08-20T22:38:25.716Z,1.17
2022-08-20T22:40:53.956Z,1.10
2022-08-20T22:43:23.076Z,1.30
2022-08-20T22:45:57.537Z,1.20
2022-08-20T22:48:24.565Z,1.52
2022-08-20T22:50:53.401Z,1.70
2022-08-20T22:53:24.005Z,1.98
2022-08-20T22:55:51.497Z,1.55
2022-08-20T22:58:20.544Z,2.10
2022-08-20T23:00:59.514Z,1.60
2022-08-20T23:03:39.504Z,1.48
2022-08-20T23:06:09.456Z,1.80
2022-08-20T23:08:38.047Z,1.80
2022-08-20T23:11:09.203Z,1.60
2022-08-20T23:13:36.249Z,1.77
2022-08-20T23:16:04.860Z,1.88
2022-08-20T23:18:32.716Z,1.58
2022-08-20T23:21:01.486Z,1.77
2022-08-20T23:23:28.352Z,2.05
2022-08-20T23:25:55.445Z,2.28
2022-08-20T23:28:25.217Z,2.08
2022-08-20T23:30:52.315Z,1.83
2022-08-20T23:33:19.280Z,2.10
2022-08-20T23:35:47.178Z,1.73
2022-08-20T23:38:14.844Z,1.77
2022-08-20T23:40:42.141Z,2.35
2022-08-20T23:43:09.667Z,2.00
2022-08-20T23:45:39.924Z,2.20
2022-08-20T23:48:09.776Z,2.08
2022-08-20T23:50:37.033Z,2.03
2022-08-20T23:53:04.963Z,2.22
2022-08-20T23:55:32.474Z,1.98
2022-08-20T23:57:59.997Z,2.05
